createdAt,value
2023-01-07T00:04:27.842Z,8.70
2023-01-07T00:09:29.427Z,8.72
2023-01-07T00:14:31.018Z,8.82
2023-01-07T00:19:32.959Z,8.77
2023-01-07T00:24:34.595Z,8.68
2023-01-07T00:29:36.261Z,8.67
2023-01-07T00:34:39.059Z,8.79
2023-01-07T00:39:42.040Z,8.64
2023-01-07T00:44:43.782Z,8.56
2023-01-07T00:49:46.924Z,8.56
2023-01-07T00:54:48.535Z,8.55
2023-01-07T00:59:50.251Z,8.58
2023-01-07T01:04:51.975Z,8.49
2023-01-07T01:09:53.655Z,8.61
2023-01-07T01:14:55.455Z,8.57
2023-01-07T01:19:57.118Z,8.63
2023-01-07T01:24:58.772Z,8.52
2023-01-07T01:30:02.164Z,8.41
2023-01-07T01:35:05.508Z,8.33
2023-01-07T01:40:08.124Z,8.27
2023-01-07T01:45:11.477Z,8.28
2023-01-07T01:50:30.674Z,8.32
2023-01-07T01:55:49.103Z,8.33
2023-01-07T02:00:51.828Z,8.50
2023-01-07T02:05:54.425Z,8.54
2023-01-07T02:11:27.573Z,8.56
2023-01-07T02:16:29.180Z,8.57
2023-01-07T02:21:40.271Z,8.70
2023-01-07T02:27:12.783Z,8.81
2023-01-07T02:32:43.340Z,8.78
2023-01-07T02:38:00.122Z,8.76
2023-01-07T02:43:11.908Z,8.73
2023-01-07T02:48:17.825Z,8.75
2023-01-07T02:53:21.010Z,8.76
2023-01-07T02:58:47.211Z,8.73
2023-01-07T03:04:12.616Z,8.78
2023-01-07T03:09:31.156Z,8.70
2023-01-07T03:14:46.421Z,8.58
2023-01-07T03:19:54.827Z,8.36
2023-01-07T03:24:58.108Z,8.24
2023-01-07T03:30:03.953Z,8.16
2023-01-07T03:35:08.067Z,7.87
2023-01-07T03:40:11.810Z,8.03
2023-01-07T03:45:20.063Z,8.02
2023-01-07T03:50:22.666Z,7.99
2023-01-07T03:55:25.620Z,7.89
2023-01-07T04:00:30.128Z,7.75
2023-01-07T04:05:43.776Z,7.66
2023-01-07T04:10:46.475Z,7.82
2023-01-07T04:15:49.038Z,7.80
2023-01-07T04:20:50.753Z,7.80
2023-01-07T04:25:52.763Z,7.86
2023-01-07T04:31:01.287Z,7.66
2023-01-07T04:36:05.499Z,7.61
2023-01-07T04:41:07.359Z,7.51
2023-01-07T04:46:09.275Z,7.73
2023-01-07T04:51:11.470Z,7.87
2023-01-07T04:56:13.961Z,8.03
2023-01-07T05:01:16.260Z,8.04
2023-01-07T05:06:19.019Z,8.12
2023-01-07T05:11:21.885Z,8.11
2023-01-07T05:16:26.548Z,8.03
2023-01-07T05:21:29.499Z,7.95
2023-01-07T05:26:31.219Z,7.87
2023-01-07T05:31:32.936Z,7.82
2023-01-07T05:36:34.640Z,7.68
2023-01-07T05:41:39.041Z,7.71
2023-01-07T05:46:41.636Z,7.71
2023-01-07T05:51:43.325Z,7.73
2023-01-07T05:56:45.012Z,7.74
2023-01-07T06:01:46.649Z,7.71
2023-01-07T06:06:48.263Z,7.69
2023-01-07T06:11:49.915Z,7.61
2023-01-07T06:16:51.551Z,7.71
2023-01-07T06:21:53.284Z,7.82
2023-01-07T06:26:54.892Z,7.82
2023-01-07T06:31:56.461Z,8.02
2023-01-07T06:36:58.122Z,7.86
2023-01-07T06:41:59.708Z,7.82
2023-01-07T06:47:01.329Z,8.00
2023-01-07T06:52:02.986Z,8.13
2023-01-07T06:57:04.658Z,7.90
2023-01-07T07:02:06.668Z,8.06
2023-01-07T07:07:08.272Z,8.14
2023-01-07T07:12:10.591Z,8.14
2023-01-07T07:17:12.311Z,8.18
2023-01-07T07:22:13.893Z,8.02
2023-01-07T07:27:15.557Z,7.98
2023-01-07T07:32:17.432Z,8.01
2023-01-07T07:37:19.120Z,7.92
2023-01-07T07:42:20.710Z,8.16
2023-01-07T07:47:24.074Z,8.16
2023-01-07T07:52:25.712Z,8.19
2023-01-07T07:57:27.522Z,8.11
2023-01-07T08:02:29.216Z,8.29
2023-01-07T08:07:32.032Z,8.35
2023-01-07T08:12:38.794Z,8.18
2023-01-07T08:17:40.452Z,8.63
2023-01-07T08:22:42.210Z,8.30
2023-01-07T08:27:43.863Z,8.47
2023-01-07T08:32:45.538Z,8.39
2023-01-07T08:37:47.219Z,8.46
2023-01-07T08:42:49.434Z,8.44
2023-01-07T08:47:51.051Z,8.48
2023-01-07T08:52:52.715Z,8.57
2023-01-07T08:57:54.379Z,8.85
2023-01-07T09:02:56.034Z,8.92
2023-01-07T09:07:58.113Z,8.86
2023-01-07T09:12:59.849Z,8.62
2023-01-07T09:18:03.611Z,8.55
2023-01-07T09:23:05.633Z,8.66
2023-01-07T09:28:07.231Z,8.83
2023-01-07T09:33:09.012Z,8.86
2023-01-07T09:38:10.641Z,9.12
2023-01-07T09:43:15.267Z,8.96
2023-01-07T09:48:24.718Z,9.06
2023-01-07T09:53:32.924Z,9.20
2023-01-07T09:58:37.045Z,9.23
2023-01-07T10:04:01.537Z,9.49
2023-01-07T10:09:15.927Z,9.49
2023-01-07T10:14:20.631Z,9.67
2023-01-07T10:19:37.331Z,9.79
2023-01-07T10:24:45.111Z,9.61
2023-01-07T10:29:52.047Z,9.69
2023-01-07T10:34:55.788Z,9.84
2023-01-07T10:40:18.975Z,9.94
2023-01-07T10:45:43.763Z,9.45
2023-01-07T10:51:14.745Z,9.53
2023-01-07T10:56:32.099Z,9.30
2023-01-07T11:01:43.851Z,9.44
2023-01-07T11:07:00.191Z,9.47
2023-01-07T11:12:13.137Z,9.23
2023-01-07T11:18:11.680Z,9.28
2023-01-07T11:23:27.969Z,9.68
2023-01-07T11:28:33.894Z,10.52
2023-01-07T11:34:03.420Z,11.83
2023-01-07T11:39:20.213Z,12.47
2023-01-07T11:44:22.044Z,11.95
2023-01-07T11:49:29.821Z,11.26
2023-01-07T11:54:32.651Z,10.61
2023-01-07T11:59:34.277Z,10.46
2023-01-07T12:04:37.044Z,10.68
2023-01-07T12:09:40.922Z,10.67
2023-01-07T12:14:47.747Z,10.76
2023-01-07T12:20:01.506Z,11.65
2023-01-07T12:25:24.441Z,12.15
2023-01-07T12:31:03.298Z,12.36
2023-01-07T12:36:20.896Z,12.26
2023-01-07T12:41:27.420Z,11.82
2023-01-07T12:46:39.374Z,11.66
2023-01-07T12:52:05.935Z,11.61
2023-01-07T12:57:21.650Z,11.45
2023-01-07T13:03:00.517Z,11.23
2023-01-07T13:08:05.910Z,11.18
2023-01-07T13:13:32.996Z,11.27
2023-01-07T13:18:34.687Z,10.99
2023-01-07T13:24:01.300Z,10.75
2023-01-07T13:29:09.577Z,10.64
2023-01-07T13:34:23.253Z,10.70
2023-01-07T13:39:55.308Z,10.91
2023-01-07T13:45:17.346Z,10.81
2023-01-07T13:50:38.784Z,10.49
2023-01-07T13:55:42.795Z,10.21
2023-01-07T14:01:01.867Z,10.12
2023-01-07T14:06:59.230Z,9.86
2023-01-07T14:12:38.540Z,9.82
2023-01-07T14:17:47.149Z,9.94
2023-01-07T14:22:54.931Z,9.94
2023-01-07T14:28:17.231Z,9.91
2023-01-07T14:33:33.651Z,9.91
2023-01-07T14:38:35.287Z,10.00
2023-01-07T14:43:43.426Z,9.52
2023-01-07T14:49:05.529Z,9.50
2023-01-07T14:54:25.846Z,9.55
2023-01-07T14:59:51.534Z,9.40
2023-01-07T15:05:11.822Z,9.35
2023-01-07T15:10:39.490Z,8.88
2023-01-07T15:16:01.327Z,8.64
2023-01-07T15:21:30.718Z,8.42
2023-01-07T15:26:53.664Z,8.28
2023-01-07T15:32:02.836Z,8.16
2023-01-07T15:37:06.598Z,8.11
2023-01-07T15:42:17.413Z,8.14
2023-01-07T15:47:34.298Z,7.93
2023-01-07T15:52:35.867Z,7.99
2023-01-07T15:57:38.789Z,8.01
2023-01-07T16:02:43.444Z,7.74
2023-01-07T16:07:56.635Z,7.57
2023-01-07T16:13:15.394Z,7.72
2023-01-07T16:18:19.128Z,7.41
2023-01-07T16:23:25.205Z,7.12
2023-01-07T16:28:32.272Z,6.94
2023-01-07T16:33:35.142Z,6.78
2023-01-07T16:38:37.874Z,6.65
2023-01-07T16:43:39.454Z,6.58
2023-01-07T16:48:41.349Z,6.54
2023-01-07T16:53:43.051Z,6.42
2023-01-07T16:58:55.508Z,6.39
2023-01-07T17:04:06.285Z,6.42
2023-01-07T17:09:21.434Z,6.43
2023-01-07T17:14:35.713Z,6.40
2023-01-07T17:19:40.658Z,6.21
2023-01-07T17:24:47.266Z,6.04
2023-01-07T17:29:50.000Z,5.71
2023-01-07T17:34:51.848Z,5.79
2023-01-07T17:39:53.661Z,5.79
2023-01-07T17:44:55.339Z,5.59
2023-01-07T17:49:57.021Z,5.65
2023-01-07T17:54:58.825Z,5.61
2023-01-07T18:00:00.491Z,5.41
2023-01-07T18:05:02.188Z,5.35
2023-01-07T18:10:04.367Z,5.02
2023-01-07T18:15:31.720Z,4.83
2023-01-07T18:20:34.322Z,5.12
2023-01-07T18:25:36.079Z,5.04
2023-01-07T18:30:39.050Z,4.86
2023-01-07T18:35:40.758Z,4.77
2023-01-07T18:40:43.352Z,4.75
2023-01-07T18:45:46.712Z,4.69
2023-01-07T18:50:49.965Z,4.73
2023-01-07T18:55:58.306Z,4.45
2023-01-07T19:01:04.849Z,4.35
2023-01-07T19:06:11.310Z,4.11
2023-01-07T19:11:14.364Z,4.31
2023-01-07T19:16:16.070Z,4.11
2023-01-07T19:21:17.838Z,4.15
2023-01-07T19:26:20.854Z,4.18
2023-01-07T19:31:22.648Z,4.22
2023-01-07T19:36:24.336Z,3.98
2023-01-07T19:41:26.508Z,4.05
2023-01-07T19:46:28.679Z,4.08
2023-01-07T19:51:30.479Z,3.70
2023-01-07T19:56:32.625Z,3.86
2023-01-07T20:01:34.534Z,3.73
2023-01-07T20:06:41.259Z,3.71
2023-01-07T20:11:43.069Z,3.51
2023-01-07T20:16:44.813Z,3.41
2023-01-07T20:21:46.811Z,3.32
2023-01-07T20:26:48.536Z,3.27
2023-01-07T20:31:50.390Z,3.63
2023-01-07T20:36:52.121Z,3.32
2023-01-07T20:41:53.935Z,3.43
2023-01-07T20:46:55.642Z,3.30
2023-01-07T20:51:57.282Z,3.31
2023-01-07T20:56:58.944Z,3.24
2023-01-07T21:02:00.824Z,3.27
2023-01-07T21:07:02.835Z,3.04
2023-01-07T21:12:04.666Z,2.96
2023-01-07T21:17:06.451Z,3.02
2023-01-07T21:22:08.158Z,2.95
2023-01-07T21:27:09.861Z,3.04
2023-01-07T21:32:11.788Z,2.93
2023-01-07T21:37:13.457Z,2.72
2023-01-07T21:42:15.257Z,2.85
2023-01-07T21:47:16.903Z,2.67
2023-01-07T21:52:19.168Z,2.73
2023-01-07T21:57:20.880Z,2.89
2023-01-07T22:02:22.592Z,2.94
2023-01-07T22:07:24.255Z,3.04
2023-01-07T22:12:26.200Z,3.07
2023-01-07T22:17:27.835Z,3.06
2023-01-07T22:22:29.520Z,3.19
2023-01-07T22:27:31.112Z,3.09
2023-01-07T22:32:32.725Z,3.22
2023-01-07T22:37:35.107Z,3.02
2023-01-07T22:42:46.348Z,3.08
2023-01-07T22:47:50.622Z,2.90
2023-01-07T22:52:52.305Z,2.88
2023-01-07T22:57:54.231Z,3.04
2023-01-07T23:02:55.919Z,3.24
2023-01-07T23:07:58.399Z,3.24
2023-01-07T23:13:00.086Z,3.33
2023-01-07T23:18:01.866Z,3.19
2023-01-07T23:23:03.498Z,3.41
2023-01-07T23:28:05.113Z,3.20
2023-01-07T23:33:06.849Z,3.50
2023-01-07T23:38:08.521Z,3.61
2023-01-07T23:43:10.173Z,3.81
2023-01-07T23:48:11.784Z,3.86
2023-01-07T23:53:13.384Z,3.72
2023-01-07T23:58:15.024Z,4.10
